Flight Track Log - Related Links

Times and Time Zones

All times are in EDT time to prevent confusion due to time zone crossing. See the CTA307 flight status page for this flight to view local times or setup timezone preferences in your user account.

Time Position Orientation Groundspeed Altitude Reporting Facility
EDT Latitude Longitude Course Direction KTS MPH feet Rate Location/Type
Sat 01:50:50 AM 33.4500 -111.9500 73° East 118 136 3,600  Level Phoenix TRACON
Sat 01:51:13 AM 33.4556 -111.9378 61° Northeast 119 137 3,800 795 Climbing Albuquerque Center
Sat 01:52:13 AM 33.4856 -111.9414 354° North 128 147 4,700 843 Climbing Albuquerque Center
Sat 01:53:14 AM 33.5111 -111.9719 315° West 129 148 5,500 893 Climbing Albuquerque Center
Sat 01:54:14 AM 33.5369 -112.0008 317° Northwest 126 145 6,500 900 Climbing Albuquerque Center
Sat 01:55:14 AM 33.5619 -112.0311 315° West 128 147 7,300 843 Climbing Albuquerque Center
Sat 01:56:15 AM 33.5867 -112.0619 314° West 128 147 8,200 843 Climbing Albuquerque Center
Sat 01:57:15 AM 33.6139 -112.0942 315° West 136 157 9,000 850 Climbing Albuquerque Center
Sat 01:58:15 AM 33.6411 -112.1269 315° West 139 160 9,900 843 Climbing Albuquerque Center
Sat 01:59:16 AM 33.6697 -112.1572 319° Northwest 137 158 10,700 397 Climbing Albuquerque Center
Sat 02:00:16 AM 33.7011 -112.1964 314° West 161 185 10,700 -50 Level Albuquerque Center
Sat 02:01:16 AM 33.7381 -112.2411 315° West 185 213 10,600 -50 Descending Albuquerque Center
Sat 02:02:16 AM 33.7756 -112.2839 317° Northwest 186 214 10,600  Level Albuquerque Center
Sat 02:03:17 AM 33.8128 -112.3275 316° Northwest 186 214 10,600 50 Level Albuquerque Center
Sat 02:04:17 AM 33.8447 -112.3761 308° West 187 215 10,700  Climbing Albuquerque Center
Sat 02:05:17 AM 33.8856 -112.4158 321° Northwest 187 215 10,600 -50 Descending Albuquerque Center
Sat 02:06:18 AM 33.9242 -112.4578 318° Northwest 185 213 10,600  Level Albuquerque Center
Sat 02:07:18 AM 33.9606 -112.5036 314° West 189 217 10,600  Level Albuquerque Center
Sat 02:08:18 AM 33.9983 -112.5478 316° Northwest 191 220 10,600 50 Level Albuquerque Center
Sat 02:09:19 AM 34.0328 -112.5944 312° West 188 216 10,700 50 Climbing Albuquerque Center
Sat 02:10:19 AM 34.0689 -112.6386 315° West 185 213 10,700 -50 Level Albuquerque Center
Sat 02:11:19 AM 34.1058 -112.6856 314° West 190 219 10,600 -50 Descending Albuquerque Center
Sat 02:12:20 AM 34.1436 -112.7283 317° Northwest 188 216 10,600  Level Albuquerque Center
Sat 02:13:20 AM 34.1819 -112.7719 317° Northwest 189 217 10,600 100 Level Albuquerque Center
Sat 02:14:20 AM 34.2217 -112.8139 319° Northwest 189 217 10,800 99 Climbing Albuquerque Center
Sat 02:15:21 AM 34.2603 -112.8567 318° Northwest 188 216 10,800  Level Albuquerque Center
Sat 02:16:21 AM 34.3069 -112.9081 318° Northwest 189 217 10,800  Level Albuquerque Center
Sat 02:17:21 AM 34.3469 -112.9514 318° Northwest 191 220 10,800  Level Albuquerque Center
Sat 02:18:21 AM 34.3839 -112.9958 315° West 188 216 10,800  Level Albuquerque Center
Sat 02:19:22 AM 34.4222 -113.0403 316° Northwest 190 219 10,800  Level Albuquerque Center
Sat 02:20:22 AM 34.4581 -113.0758 321° Northwest 191 220 10,800  Level Albuquerque Center
Sat 02:21:22 AM 34.4986 -113.1206 318° Northwest 194 223 10,800  Level Albuquerque Center
Sat 02:22:23 AM 34.5361 -113.1653 316° Northwest 193 222 10,800  Level Albuquerque Center
Sat 02:23:23 AM 34.5736 -113.2097 316° Northwest 191 220 10,800 50 Level Albuquerque Center
Sat 02:24:23 AM 34.6131 -113.2506 320° Northwest 190 219 10,900  Climbing Albuquerque Center
Sat 02:25:24 AM 34.6525 -113.2900 321° Northwest 187 215 10,800 -50 Descending Albuquerque Center
Sat 02:26:24 AM 34.6958 -113.3419 315° West 184 212 10,800  Level Albuquerque Center
Sat 02:27:24 AM 34.7344 -113.3828 319° Northwest 184 212 10,800  Level Albuquerque Center
Sat 02:28:25 AM 34.7711 -113.4242 317° Northwest 183 211 10,800  Level Albuquerque Center
Sat 02:29:25 AM 34.8061 -113.4667 315° West 181 208 10,800  Level Albuquerque Center
Sat 02:30:25 AM 34.8439 -113.5056 320° Northwest 179 206 10,800  Level Albuquerque Center
Sat 02:31:26 AM 34.8808 -113.5453 319° Northwest 179 206 10,800 -69 Level Albuquerque Center
Sat 02:31:52 AM 34.8944 -113.5631 313° West 178 205 10,700  Descending Los Angeles Center
Sat 02:32:52 AM 34.9219 -113.5978 314° West 178 205 10,800  Climbing Los Angeles Center
Sat 02:33:53 AM 34.9639 -113.6500 314° West 179 206 10,700 -50 Descending Los Angeles Center
Sat 02:34:53 AM 34.9989 -113.6919 316° Northwest 178 205 10,700  Level Los Angeles Center
Sat 02:35:54 AM 35.0322 -113.7364 312° West 178 205 10,700  Level Los Angeles Center
Sat 02:36:54 AM 35.0669 -113.7792 315° West 178 205 10,700  Level Los Angeles Center
Sat 02:37:55 AM 35.1011 -113.8228 314° West 178 205 10,700 50 Level Los Angeles Center
Sat 02:38:55 AM 35.1375 -113.8597 320° Northwest 174 200 10,800 99 Climbing Los Angeles Center
Sat 02:39:56 AM 35.1756 -113.8978 321° Northwest 176 203 10,900 50 Climbing Los Angeles Center
Sat 02:40:56 AM 35.2028 -113.9522 301° West 182 209 10,900 -50 Level Los Angeles Center
Sat 02:41:57 AM 35.2311 -114.0039 304° West 182 209 10,800 -50 Descending Los Angeles Center
Sat 02:42:57 AM 35.2653 -114.0478 314° West 179 206 10,800 -50 Level Los Angeles Center
Sat 02:43:58 AM 35.3014 -114.0928 315° West 183 211 10,700 -50 Descending Los Angeles Center
Sat 02:44:58 AM 35.3353 -114.1378 313° West 182 209 10,700 50 Level Los Angeles Center
Sat 02:45:59 AM 35.3703 -114.1817 314° West 180 207 10,800 50 Climbing Los Angeles Center
Sat 02:46:59 AM 35.4119 -114.2358 313° West 182 209 10,800 -99 Level Los Angeles Center
Sat 02:48:00 AM 35.4500 -114.2800 317° Northwest 186 214 10,600 -149 Descending Los Angeles Center
Sat 02:49:00 AM 35.4869 -114.3247 315° West 186 214 10,500 -45 Descending Los Angeles Center
Sat 02:50:13 AM 35.5233 -114.3683 316° Northwest 185 213 10,500 45 Level Los Angeles Center
Sat 02:51:13 AM 35.5667 -114.4197 316° Northwest 180 207 10,600 50 Climbing Los Angeles Center
Sat 02:52:14 AM 35.6044 -114.4625 317° Northwest 184 212 10,600  Level Los Angeles Center
Sat 02:53:14 AM 35.6400 -114.5064 315° West 182 209 10,600  Level Los Angeles Center
Sat 02:53:50 AM 35.6636 -114.5328 318° Northwest 185 213 10,600 -98 Level Los Angeles Center
Sat 02:54:15 AM 35.6767 -114.5514 311° West 186 214 10,500 -109 Descending Los Angeles Center
Sat 02:54:45 AM 35.6967 -114.5747 317° Northwest 185 213 10,500  Level Los Angeles Center
Sat 02:55:15 AM 35.7133 -114.5958 314° West 186 214 10,500 90 Level Los Angeles Center
Sat 02:55:52 AM 35.7356 -114.6225 316° Northwest 185 213 10,600  Climbing Los Angeles Center
Sat 02:56:16 AM 35.7492 -114.6406 313° West 184 212 10,500 -100 Descending Los Angeles Center
Sat 02:56:52 AM 35.7750 -114.6731 314° West 186 214 10,500  Level Los Angeles Center
Sat 02:57:16 AM 35.7853 -114.6869 312° West 186 214 10,500  Level Los Angeles Center
Sat 02:57:47 AM 35.8081 -114.7150 315° West 186 214 10,500  Level Los Angeles Center
Sat 02:58:17 AM 35.8211 -114.7336 311° West 188 216 10,500  Level Los Angeles Center
Sat 02:58:47 AM 35.8422 -114.7619 313° West 183 211 10,500  Level Los Angeles Center
Sat 02:59:17 AM 35.8578 -114.7775 321° Northwest 184 212 10,500  Level Los Angeles Center
Sat 02:59:48 AM 35.8800 -114.8053 315° West 184 212 10,500  Level Los Angeles Center
Sat 03:00:17 AM 35.8939 -114.8222 315° West 184 212 10,500 -393 Level Los Angeles Center
Sat 03:00:49 AM 35.9156 -114.8492 315° West 184 212 10,100 -1,082 Descending Los Angeles Center
Sat 03:01:18 AM 35.9336 -114.8672 321° Northwest 189 217 9,400 -1,600 Descending Los Angeles Center
Sat 03:01:49 AM 35.9628 -114.8972 320° Northwest 216 249 8,500 -800 Descending Los Angeles Center
Sat 03:02:18 AM 35.9719 -114.9044 327° Northwest 205 236 8,600 -590 Climbing Los Angeles Center
Sat 03:02:50 AM 36.0044 -114.9392 319° Northwest 192 221 7,900 -1,574 Descending Los Angeles Center
Sat 03:03:19 AM 36.0228 -114.9569 322° Northwest 204 235 7,000 -1,300 Descending Los Angeles Center
Sat 03:03:50 AM 36.0478 -114.9886 314° West 209 241 6,600 -400 Descending Los Angeles Center
Sat 03:04:19 AM 36.0636 -115.0044 321° Northwest 203 234 6,600 -98 Level Los Angeles Center
Sat 03:04:51 AM 36.0847 -115.0297 316° Northwest 176 203 6,500 -800 Descending Los Angeles Center
Sat 03:05:19 AM 36.0997 -115.0453 320° Northwest 185 213 5,800 -1,967 Descending Los Angeles Center
Sat 03:05:52 AM 36.1244 -115.0831 309° West 204 235 4,500 -1,644 Descending Los Angeles Center
Sat 03:06:32 AM 36.1378 -115.0956 323° Northwest 190 219 3,800 -900 Descending Los Angeles Center
Sat 03:06:52 AM 36.1606 -115.1297 310° West 176 203 3,600 -500 Descending Los Angeles Center
Sat 03:07:32 AM 36.1803 -115.1500 320° Northwest 189 217 3,300 -885 Descending Los Angeles Center
Sat 03:07:53 AM 36.1883 -115.1683 299° West 138 159 2,700 -984 Descending Los Angeles Center
Sat 03:08:33 AM 36.2036 -115.1833 322° Northwest 156 180 2,300 -600 Descending Los Angeles Center
Sat 03:10:00 AM 36.2000 -115.1833 North  Level FlightAware Approximate
Sat 03:17:00 AM 36.2107 -115.1944 North  Level Estimated
Sat 03:18:00 AM 36.2107 -115.1944 North  Level Estimated
Sat 03:19:00 AM 36.2107 -115.1944 North  Level Estimated

Login

Don't have an account? Register now (free) for customized features, flight alerts, and more!